createdAt,value
2023-01-12T17:11:55.250Z,25.85
2023-01-12T17:14:29.626Z,44.85
2023-01-12T17:17:07.580Z,41.85
2023-01-12T17:19:44.980Z,55.35
2023-01-12T17:22:18.085Z,48.35
2023-01-12T17:24:51.251Z,37.25
2023-01-12T17:27:24.671Z,33.70
2023-01-12T17:29:57.255Z,30.73
2023-01-12T17:32:30.191Z,31.65
2023-01-12T17:35:05.367Z,27.80
2023-01-12T17:40:11.539Z,31.88
2023-01-12T17:43:02.999Z,31.38
2023-01-12T17:45:43.047Z,40.92
2023-01-12T17:48:19.386Z,31.48
2023-01-12T17:50:51.921Z,32.03
2023-01-12T17:53:24.462Z,33.75
2023-01-12T17:55:57.421Z,32.10
2023-01-12T17:58:30.093Z,45.85
2023-01-12T18:01:11.709Z,43.38
2023-01-12T18:03:44.585Z,36.53
2023-01-12T18:06:25.761Z,35.05
2023-01-12T18:09:00.387Z,33.72
2023-01-12T18:11:34.204Z,31.70
2023-01-12T18:14:07.577Z,33.40
2023-01-12T18:16:40.521Z,39.58
2023-01-12T18:19:15.194Z,32.53
2023-01-12T18:21:50.334Z,33.78
2023-01-12T18:24:23.013Z,37.03
2023-01-12T18:26:55.559Z,43.88
2023-01-12T18:29:28.531Z,40.95
2023-01-12T18:32:01.667Z,41.65
2023-01-12T18:34:35.864Z,37.35
2023-01-12T18:37:08.645Z,37.93
2023-01-12T18:39:44.183Z,39.65
2023-01-12T18:42:33.713Z,40.58
2023-01-12T18:45:06.883Z,41.75
2023-01-12T18:47:54.829Z,54.35
2023-01-12T18:50:44.531Z,65.43
2023-01-12T18:53:26.205Z,63.80
2023-01-12T18:56:01.914Z,64.35
2023-01-12T18:58:37.340Z,55.30
2023-01-12T19:01:18.869Z,52.55
2023-01-12T19:03:53.092Z,50.10
2023-01-12T19:06:40.580Z,55.77
2023-01-12T19:09:28.834Z,75.85
2023-01-12T19:12:02.785Z,70.90
2023-01-12T19:14:50.852Z,69.38
2023-01-12T19:17:30.893Z,55.75
2023-01-12T19:20:16.198Z,48.55
2023-01-12T19:23:04.704Z,41.22
2023-01-12T19:25:53.386Z,47.75
2023-01-12T19:28:36.384Z,62.75
2023-01-12T19:31:11.203Z,70.38
2023-01-12T19:36:16.535Z,33.72
2023-01-12T19:38:51.250Z,32.85
2023-01-12T19:41:38.903Z,32.53
2023-01-12T19:44:11.535Z,36.55
2023-01-12T19:46:44.440Z,35.13
2023-01-12T19:49:19.273Z,32.30
2023-01-12T19:51:51.828Z,32.78
2023-01-12T19:54:24.537Z,28.60
2023-01-12T19:56:57.069Z,33.92
2023-01-12T19:59:29.814Z,31.63
2023-01-12T20:02:02.720Z,29.05
2023-01-12T20:04:35.902Z,30.27
2023-01-12T20:07:09.301Z,28.05
2023-01-12T20:09:42.083Z,26.90
2023-01-12T20:12:16.908Z,29.05
2023-01-12T20:14:49.451Z,32.92
2023-01-12T20:17:22.045Z,35.53
2023-01-12T20:19:54.680Z,43.50
2023-01-12T20:22:27.195Z,32.28
2023-01-12T20:25:01.871Z,31.95
2023-01-12T20:27:35.845Z,28.02
2023-01-12T20:30:11.284Z,23.33
2023-01-12T20:32:44.647Z,26.83
2023-01-12T20:35:20.314Z,25.65
2023-01-12T20:37:53.026Z,24.08
2023-01-12T20:40:25.893Z,24.05
2023-01-12T20:42:58.503Z,25.58
2023-01-12T20:45:31.248Z,24.58
2023-01-12T20:48:03.966Z,20.77
2023-01-12T20:50:36.706Z,18.83
2023-01-12T20:53:11.181Z,19.35
2023-01-12T20:55:46.992Z,21.40
2023-01-12T20:58:19.978Z,22.30
2023-01-12T21:00:53.261Z,20.77
2023-01-12T21:03:25.919Z,18.80
2023-01-12T21:06:00.463Z,20.67
2023-01-12T21:08:33.129Z,19.08
2023-01-12T21:11:05.856Z,15.90
2023-01-12T21:13:38.914Z,16.85
2023-01-12T21:16:15.078Z,18.33
2023-01-12T21:18:48.261Z,17.35
2023-01-12T21:21:20.964Z,17.90
2023-01-12T21:23:53.840Z,18.95
2023-01-12T21:26:26.524Z,20.42
2023-01-12T21:28:59.370Z,16.05
2023-01-12T21:31:31.958Z,14.48
2023-01-12T21:34:04.478Z,16.08
2023-01-12T21:36:37.067Z,15.32
2023-01-12T21:39:09.655Z,19.17
2023-01-12T21:41:57.912Z,15.75
2023-01-12T21:44:30.353Z,14.98
2023-01-12T21:47:02.996Z,15.68
2023-01-12T21:49:35.508Z,56.55
2023-01-12T21:52:09.865Z,25.80
2023-01-12T21:54:42.474Z,20.55
2023-01-12T21:57:15.051Z,15.52
2023-01-12T21:59:47.468Z,19.40
2023-01-12T22:02:20.130Z,14.43
2023-01-12T22:04:53.104Z,14.35
2023-01-12T22:07:27.743Z,15.68
2023-01-12T22:10:19.471Z,12.73
2023-01-12T22:12:55.086Z,11.82
2023-01-12T22:15:29.370Z,14.20
2023-01-12T22:18:02.001Z,8.67
2023-01-12T22:20:34.952Z,10.48
2023-01-12T22:23:07.853Z,13.63
2023-01-12T22:25:40.353Z,10.45
2023-01-12T22:28:13.118Z,14.25
2023-01-12T22:30:45.730Z,15.60
2023-01-12T22:33:18.342Z,9.85
2023-01-12T22:35:50.938Z,13.80
2023-01-12T22:38:23.737Z,11.60
2023-01-12T22:40:56.276Z,13.23
2023-01-12T22:43:29.164Z,15.65
2023-01-12T22:46:01.992Z,13.10
2023-01-12T22:48:34.555Z,17.13
2023-01-12T22:51:08.499Z,16.02
2023-01-12T22:53:41.239Z,13.77
2023-01-12T22:56:13.848Z,13.98
2023-01-12T22:58:49.067Z,14.90
2023-01-12T23:01:25.200Z,14.57
2023-01-12T23:03:58.548Z,14.50
2023-01-12T23:06:30.939Z,14.30
2023-01-12T23:09:04.834Z,17.52
2023-01-12T23:11:38.627Z,17.00
2023-01-12T23:14:11.158Z,19.05
2023-01-12T23:16:43.670Z,17.08
2023-01-12T23:19:16.212Z,16.65
2023-01-12T23:21:48.803Z,14.43
2023-01-12T23:24:21.333Z,15.43
2023-01-12T23:26:54.577Z,14.80
2023-01-12T23:29:27.098Z,15.18
2023-01-12T23:31:59.603Z,14.60
2023-01-12T23:34:32.201Z,14.95
2023-01-12T23:37:04.575Z,19.08
2023-01-12T23:39:40.111Z,15.73
2023-01-12T23:42:12.703Z,13.77
2023-01-12T23:44:45.702Z,13.43
2023-01-12T23:47:19.686Z,14.52
2023-01-12T23:49:52.229Z,16.92
2023-01-12T23:52:24.775Z,13.80
2023-01-12T23:54:58.524Z,13.18
2023-01-12T23:57:31.447Z,17.60
